SAB2083 EBBR-EGNM
Flight info
| Callsign | SAB2083 |
|---|---|
| Flight time | 1h 1m |
| Altitude | 30000 |
| Route | DENUT L610 LAM UN57 WELIN T420 TNT N57 DENBY |
| Aircraft | RJ85/M-SDFGIRWY/LB1 |
Departure
| Time | 2026-05-04 20:00 |
|---|---|
| Airport | Brussels Airport (EBBR) |
Arrival
| Time | 2026-05-04 21:01 |
|---|---|
| Airport | Leeds Bradford Airport (EGNM) |
| Time | Latitude | Longitude | Altitude | Speed | Heading |
|---|---|---|---|---|---|
| 2026-05-04 19:30 | 50.89340 | 4.48603 | 152 ft | 0 kts | 70° |
| 2026-05-04 19:52 | 50.89342 | 4.48612 | 152 ft | 3 kts | 70° |
| 2026-05-04 19:52 | 50.89346 | 4.48653 | 153 ft | 4 kts | 94° |
| 2026-05-04 19:52 | 50.89337 | 4.48674 | 154 ft | 2 kts | 148° |
| 2026-05-04 19:53 | 50.89331 | 4.48679 | 155 ft | 0 kts | 153° |
| 2026-05-04 19:53 | 50.89305 | 4.48699 | 158 ft | 10 kts | 154° |
| 2026-05-04 19:53 | 50.89270 | 4.48790 | 164 ft | 14 kts | 69° |
| 2026-05-04 19:53 | 50.89308 | 4.48955 | 166 ft | 16 kts | 70° |
| 2026-05-04 19:54 | 50.89369 | 4.49100 | 165 ft | 15 kts | 28° |
| 2026-05-04 19:54 | 50.89486 | 4.49145 | 160 ft | 19 kts | 12° |
| 2026-05-04 19:54 | 50.89596 | 4.49219 | 155 ft | 17 kts | 41° |
| 2026-05-04 19:54 | 50.89712 | 4.49287 | 148 ft | 19 kts | 17° |
| 2026-05-04 19:55 | 50.89843 | 4.49344 | 140 ft | 21 kts | 13° |
| 2026-05-04 19:55 | 50.89988 | 4.49399 | 132 ft | 22 kts | 14° |
| 2026-05-04 19:55 | 50.90131 | 4.49457 | 129 ft | 20 kts | 14° |
| 2026-05-04 19:55 | 50.90267 | 4.49513 | 126 ft | 20 kts | 15° |
| 2026-05-04 19:56 | 50.90393 | 4.49567 | 123 ft | 18 kts | 15° |
| 2026-05-04 19:56 | 50.90509 | 4.49616 | 120 ft | 16 kts | 14° |
| 2026-05-04 19:56 | 50.90611 | 4.49657 | 120 ft | 14 kts | 14° |
| 2026-05-04 19:56 | 50.90699 | 4.49691 | 120 ft | 12 kts | 13° |
| 2026-05-04 19:57 | 50.90779 | 4.49723 | 122 ft | 12 kts | 14° |
| 2026-05-04 19:57 | 50.90835 | 4.49745 | 122 ft | 8 kts | 14° |
| 2026-05-04 19:57 | 50.90890 | 4.49767 | 122 ft | 8 kts | 14° |
| 2026-05-04 19:57 | 50.90937 | 4.49803 | 123 ft | 5 kts | 36° |
| 2026-05-04 19:58 | 50.90976 | 4.49849 | 122 ft | 11 kts | 40° |
| 2026-05-04 19:58 | 50.91063 | 4.49924 | 116 ft | 15 kts | 21° |
| 2026-05-04 19:58 | 50.91134 | 4.49898 | 116 ft | 8 kts | 286° |
| 2026-05-04 19:58 | 50.91130 | 4.49856 | 119 ft | 0 kts | 246° |
| 2026-05-04 19:59 | 50.91130 | 4.49855 | 119 ft | 3 kts | 246° |
| 2026-05-04 19:59 | 50.91013 | 4.49455 | 116 ft | 75 kts | 246° |
| 2026-05-04 19:59 | 50.90714 | 4.48414 | 120 ft | 129 kts | 245° |
| 2026-05-04 19:59 | 50.90336 | 4.47088 | 461 ft | 138 kts | 246° |
| 2026-05-04 20:00 | 50.89921 | 4.45698 | 1011 ft | 142 kts | 245° |
| 2026-05-04 20:00 | 50.89847 | 4.44161 | 1537 ft | 148 kts | 294° |
| 2026-05-04 20:00 | 50.90290 | 4.42682 | 2139 ft | 146 kts | 295° |
| 2026-05-04 20:00 | 50.90757 | 4.41326 | 2646 ft | 146 kts | 298° |
| 2026-05-04 20:01 | 50.91254 | 4.39763 | 2829 ft | 172 kts | 297° |
| 2026-05-04 20:01 | 50.91687 | 4.37940 | 3226 ft | 178 kts | 282° |
| 2026-05-04 20:01 | 50.91907 | 4.35946 | 3553 ft | 193 kts | 278° |
| 2026-05-04 20:01 | 50.92098 | 4.33679 | 3770 ft | 221 kts | 276° |
| 2026-05-04 20:02 | 50.92275 | 4.31116 | 4160 ft | 248 kts | 274° |
| 2026-05-04 20:02 | 50.92626 | 4.28349 | 4580 ft | 266 kts | 296° |
| 2026-05-04 20:02 | 50.93694 | 4.25973 | 5315 ft | 271 kts | 307° |
| 2026-05-04 20:02 | 50.94848 | 4.23587 | 6121 ft | 274 kts | 306° |
| 2026-05-04 20:03 | 50.96006 | 4.21170 | 6889 ft | 277 kts | 307° |
| 2026-05-04 20:03 | 50.97212 | 4.18742 | 7390 ft | 283 kts | 307° |
| 2026-05-04 20:03 | 50.98438 | 4.16303 | 7874 ft | 283 kts | 308° |
| 2026-05-04 20:03 | 50.99680 | 4.13865 | 8387 ft | 285 kts | 308° |
| 2026-05-04 20:04 | 51.00933 | 4.11412 | 8896 ft | 287 kts | 308° |
| 2026-05-04 20:04 | 51.02193 | 4.08934 | 9426 ft | 290 kts | 307° |
| 2026-05-04 20:04 | 51.03450 | 4.06419 | 10016 ft | 291 kts | 307° |
| 2026-05-04 20:04 | 51.04713 | 4.03875 | 10384 ft | 304 kts | 307° |
| 2026-05-04 20:05 | 51.06050 | 4.01170 | 10706 ft | 316 kts | 307° |
| 2026-05-04 20:05 | 51.07422 | 3.98423 | 11163 ft | 319 kts | 308° |
| 2026-05-04 20:05 | 51.08806 | 3.95660 | 11780 ft | 320 kts | 308° |
| 2026-05-04 20:05 | 51.10191 | 3.92884 | 12397 ft | 322 kts | 308° |
| 2026-05-04 20:06 | 51.11590 | 3.90078 | 12982 ft | 325 kts | 308° |
| 2026-05-04 20:06 | 51.12997 | 3.87239 | 13526 ft | 328 kts | 307° |
| 2026-05-04 20:06 | 51.14406 | 3.84354 | 14040 ft | 331 kts | 307° |
| 2026-05-04 20:06 | 51.15824 | 3.81439 | 14528 ft | 334 kts | 307° |
| 2026-05-04 20:07 | 51.17244 | 3.78547 | 14986 ft | 337 kts | 307° |
| 2026-05-04 20:07 | 51.18694 | 3.75590 | 15422 ft | 340 kts | 307° |
| 2026-05-04 20:07 | 51.20150 | 3.72609 | 15847 ft | 342 kts | 307° |
| 2026-05-04 20:07 | 51.21623 | 3.69622 | 16235 ft | 344 kts | 307° |
| 2026-05-04 20:08 | 51.22957 | 3.66450 | 16590 ft | 345 kts | 295° |
| 2026-05-04 20:08 | 51.23825 | 3.62879 | 16964 ft | 346 kts | 287° |
| 2026-05-04 20:08 | 51.24493 | 3.59176 | 17338 ft | 348 kts | 283° |
| 2026-05-04 20:08 | 51.25042 | 3.55455 | 17699 ft | 350 kts | 281° |
| 2026-05-04 20:09 | 51.25550 | 3.51648 | 18060 ft | 352 kts | 281° |
| 2026-05-04 20:09 | 51.26042 | 3.47816 | 18416 ft | 353 kts | 280° |
| 2026-05-04 20:09 | 51.26525 | 3.43955 | 18791 ft | 355 kts | 280° |
| 2026-05-04 20:09 | 51.27006 | 3.40086 | 19154 ft | 356 kts | 280° |
| 2026-05-04 20:10 | 51.27486 | 3.36202 | 19522 ft | 357 kts | 280° |
| 2026-05-04 20:10 | 51.27969 | 3.32314 | 19858 ft | 359 kts | 280° |
| 2026-05-04 20:10 | 51.28454 | 3.28400 | 20210 ft | 360 kts | 279° |
| 2026-05-04 20:10 | 51.28947 | 3.24473 | 20541 ft | 361 kts | 280° |
| 2026-05-04 20:11 | 51.29448 | 3.20598 | 20868 ft | 362 kts | 280° |
| 2026-05-04 20:11 | 51.29950 | 3.16647 | 21191 ft | 364 kts | 280° |
| 2026-05-04 20:11 | 51.30453 | 3.12685 | 21523 ft | 364 kts | 280° |
| 2026-05-04 20:11 | 51.30957 | 3.08705 | 21828 ft | 366 kts | 279° |
| 2026-05-04 20:12 | 51.31461 | 3.04718 | 22147 ft | 367 kts | 279° |
| 2026-05-04 20:12 | 51.31971 | 3.00709 | 22443 ft | 369 kts | 279° |
| 2026-05-04 20:12 | 51.32481 | 2.96690 | 22750 ft | 369 kts | 279° |
| 2026-05-04 20:12 | 51.32993 | 2.92663 | 23050 ft | 370 kts | 279° |
| 2026-05-04 20:13 | 51.33508 | 2.88614 | 23330 ft | 372 kts | 279° |
| 2026-05-04 20:13 | 51.34018 | 2.84617 | 23613 ft | 373 kts | 279° |
| 2026-05-04 20:13 | 51.34536 | 2.80546 | 23887 ft | 374 kts | 279° |
| 2026-05-04 20:13 | 51.35033 | 2.76463 | 24165 ft | 375 kts | 279° |
| 2026-05-04 20:14 | 51.35522 | 2.72363 | 24412 ft | 377 kts | 279° |
| 2026-05-04 20:14 | 51.36033 | 2.68257 | 24728 ft | 376 kts | 279° |
| 2026-05-04 20:14 | 51.36540 | 2.64161 | 25074 ft | 374 kts | 278° |
| 2026-05-04 20:14 | 51.37041 | 2.60077 | 25406 ft | 374 kts | 278° |
| 2026-05-04 20:15 | 51.37544 | 2.56001 | 25720 ft | 373 kts | 278° |
| 2026-05-04 20:15 | 51.38051 | 2.51931 | 26015 ft | 372 kts | 278° |
| 2026-05-04 20:15 | 51.38536 | 2.47919 | 26294 ft | 372 kts | 278° |
| 2026-05-04 20:15 | 51.39018 | 2.43857 | 26584 ft | 371 kts | 278° |
| 2026-05-04 20:16 | 51.39499 | 2.39802 | 26878 ft | 370 kts | 277° |
| 2026-05-04 20:16 | 51.39985 | 2.35764 | 27143 ft | 370 kts | 277° |
| 2026-05-04 20:16 | 51.40475 | 2.31724 | 27422 ft | 369 kts | 277° |
| 2026-05-04 20:16 | 51.40969 | 2.27686 | 27689 ft | 369 kts | 277° |
| 2026-05-04 20:17 | 51.41467 | 2.23669 | 27943 ft | 368 kts | 277° |
| 2026-05-04 20:17 | 51.41964 | 2.19649 | 28195 ft | 367 kts | 277° |
| 2026-05-04 20:17 | 51.42447 | 2.15635 | 28437 ft | 367 kts | 277° |
| 2026-05-04 20:17 | 51.42920 | 2.11677 | 28681 ft | 366 kts | 276° |
| 2026-05-04 20:18 | 51.43397 | 2.07664 | 28907 ft | 366 kts | 277° |
| 2026-05-04 20:18 | 51.43875 | 2.03668 | 29145 ft | 365 kts | 276° |
| 2026-05-04 20:18 | 51.44359 | 1.99670 | 29372 ft | 365 kts | 276° |
| 2026-05-04 20:18 | 51.44843 | 1.95682 | 29572 ft | 365 kts | 276° |
| 2026-05-04 20:19 | 51.45328 | 1.91679 | 29794 ft | 365 kts | 276° |
| 2026-05-04 20:19 | 51.45809 | 1.87696 | 29967 ft | 364 kts | 276° |
| 2026-05-04 20:19 | 51.46271 | 1.83713 | 30024 ft | 363 kts | 276° |
| 2026-05-04 20:20 | 51.47175 | 1.75683 | 30051 ft | 374 kts | 276° |
| 2026-05-04 20:20 | 51.48134 | 1.67364 | 30061 ft | 384 kts | 276° |
| 2026-05-04 20:21 | 51.49132 | 1.58846 | 30063 ft | 392 kts | 276° |
| 2026-05-04 20:21 | 51.50593 | 1.45879 | 30057 ft | 395 kts | 276° |
| 2026-05-04 20:22 | 51.51574 | 1.37243 | 30055 ft | 396 kts | 276° |
| 2026-05-04 20:22 | 51.52561 | 1.28543 | 30048 ft | 396 kts | 276° |
| 2026-05-04 20:23 | 51.53514 | 1.19833 | 30056 ft | 396 kts | 276° |
| 2026-05-04 20:23 | 51.54467 | 1.11112 | 30057 ft | 397 kts | 276° |
| 2026-05-04 20:24 | 51.55404 | 1.02427 | 30058 ft | 397 kts | 276° |
| 2026-05-04 20:24 | 51.56341 | 0.93671 | 30051 ft | 398 kts | 276° |
| 2026-05-04 20:25 | 51.57272 | 0.84942 | 30052 ft | 398 kts | 277° |
| 2026-05-04 20:25 | 51.58220 | 0.76176 | 30048 ft | 398 kts | 276° |
| 2026-05-04 20:26 | 51.59141 | 0.67516 | 30052 ft | 398 kts | 276° |
| 2026-05-04 20:26 | 51.60057 | 0.58768 | 30070 ft | 398 kts | 277° |
| 2026-05-04 20:27 | 51.60994 | 0.49983 | 30078 ft | 398 kts | 276° |
| 2026-05-04 20:27 | 51.61910 | 0.41190 | 30077 ft | 399 kts | 277° |
| 2026-05-04 20:28 | 51.62804 | 0.32399 | 30076 ft | 398 kts | 276° |
| 2026-05-04 20:28 | 51.63671 | 0.24022 | 30083 ft | 398 kts | 276° |
| 2026-05-04 20:29 | 51.65291 | 0.15622 | 30087 ft | 403 kts | 297° |
| 2026-05-04 20:29 | 51.68542 | 0.08415 | 30090 ft | 409 kts | 309° |
| 2026-05-04 20:30 | 51.72086 | 0.02468 | 30085 ft | 410 kts | 312° |
| 2026-05-04 20:30 | 51.76089 | -0.03906 | 30079 ft | 410 kts | 313° |
| 2026-05-04 20:31 | 51.79982 | -0.10185 | 30079 ft | 415 kts | 312° |
| 2026-05-04 20:31 | 51.83973 | -0.16775 | 30082 ft | 416 kts | 312° |
| 2026-05-04 20:32 | 51.87326 | -0.22341 | 30074 ft | 414 kts | 312° |
| 2026-05-04 20:32 | 51.91317 | -0.28980 | 30068 ft | 414 kts | 312° |
| 2026-05-04 20:33 | 51.95314 | -0.35641 | 30066 ft | 414 kts | 311° |
| 2026-05-04 20:33 | 51.99101 | -0.41960 | 30067 ft | 414 kts | 312° |
| 2026-05-04 20:34 | 52.03015 | -0.48527 | 30070 ft | 413 kts | 312° |
| 2026-05-04 20:34 | 52.06868 | -0.55057 | 30067 ft | 409 kts | 313° |
| 2026-05-04 20:35 | 52.10852 | -0.61799 | 30068 ft | 409 kts | 313° |
| 2026-05-04 20:35 | 52.14046 | -0.67207 | 30069 ft | 410 kts | 313° |
| 2026-05-04 20:36 | 52.18578 | -0.74893 | 30068 ft | 409 kts | 313° |
| 2026-05-04 20:36 | 52.22522 | -0.81584 | 30068 ft | 409 kts | 313° |
| 2026-05-04 20:37 | 52.26645 | -0.87270 | 30071 ft | 411 kts | 324° |
| 2026-05-04 20:37 | 52.31189 | -0.91980 | 30071 ft | 411 kts | 328° |
| 2026-05-04 20:38 | 52.36113 | -0.96761 | 30070 ft | 412 kts | 328° |
| 2026-05-04 20:38 | 52.41044 | -1.01558 | 30070 ft | 412 kts | 328° |
| 2026-05-04 20:39 | 52.45875 | -1.06362 | 30068 ft | 411 kts | 327° |
| 2026-05-04 20:39 | 52.50687 | -1.11183 | 30073 ft | 411 kts | 327° |
| 2026-05-04 20:40 | 52.55495 | -1.16009 | 30072 ft | 411 kts | 327° |
| 2026-05-04 20:40 | 52.57961 | -1.18483 | 29587 ft | 417 kts | 327° |
| 2026-05-04 20:40 | 52.60429 | -1.20978 | 29085 ft | 416 kts | 327° |
| 2026-05-04 20:41 | 52.62865 | -1.23485 | 28593 ft | 417 kts | 327° |
| 2026-05-04 20:41 | 52.65307 | -1.25968 | 28105 ft | 419 kts | 327° |
| 2026-05-04 20:41 | 52.67426 | -1.28102 | 27684 ft | 419 kts | 327° |
| 2026-05-04 20:41 | 52.69940 | -1.30666 | 27605 ft | 429 kts | 327° |
| 2026-05-04 20:42 | 52.72444 | -1.33228 | 27087 ft | 418 kts | 326° |
| 2026-05-04 20:42 | 52.74854 | -1.35664 | 26611 ft | 415 kts | 326° |
| 2026-05-04 20:42 | 52.77298 | -1.38160 | 26105 ft | 409 kts | 326° |
| 2026-05-04 20:42 | 52.79658 | -1.40588 | 25610 ft | 400 kts | 325° |
| 2026-05-04 20:43 | 52.81969 | -1.42951 | 25118 ft | 393 kts | 325° |
| 2026-05-04 20:43 | 52.84164 | -1.45174 | 24654 ft | 388 kts | 325° |
| 2026-05-04 20:43 | 52.86464 | -1.47525 | 24176 ft | 387 kts | 324° |
| 2026-05-04 20:43 | 52.88744 | -1.49851 | 23704 ft | 383 kts | 324° |
| 2026-05-04 20:44 | 52.90999 | -1.52169 | 23167 ft | 381 kts | 324° |
| 2026-05-04 20:44 | 52.93121 | -1.54385 | 22651 ft | 380 kts | 324° |
| 2026-05-04 20:44 | 52.95346 | -1.56706 | 22111 ft | 376 kts | 324° |
| 2026-05-04 20:44 | 52.97559 | -1.58979 | 21586 ft | 374 kts | 325° |
| 2026-05-04 20:45 | 52.99740 | -1.61219 | 21074 ft | 371 kts | 325° |
| 2026-05-04 20:45 | 53.01794 | -1.63357 | 20609 ft | 370 kts | 326° |
| 2026-05-04 20:45 | 53.03963 | -1.65630 | 20101 ft | 367 kts | 326° |
| 2026-05-04 20:45 | 53.06200 | -1.67623 | 19607 ft | 365 kts | 334° |
| 2026-05-04 20:46 | 53.08555 | -1.69223 | 19124 ft | 364 kts | 337° |
| 2026-05-04 20:46 | 53.10915 | -1.70677 | 18652 ft | 361 kts | 338° |
| 2026-05-04 20:46 | 53.13248 | -1.72062 | 18160 ft | 359 kts | 339° |
| 2026-05-04 20:46 | 53.15585 | -1.73445 | 17623 ft | 356 kts | 338° |
| 2026-05-04 20:47 | 53.17904 | -1.74840 | 17087 ft | 353 kts | 338° |
| 2026-05-04 20:47 | 53.20059 | -1.76140 | 16597 ft | 350 kts | 338° |
| 2026-05-04 20:47 | 53.22331 | -1.77543 | 16085 ft | 347 kts | 338° |
| 2026-05-04 20:47 | 53.24577 | -1.78964 | 15587 ft | 344 kts | 338° |
| 2026-05-04 20:48 | 53.26791 | -1.80343 | 15089 ft | 340 kts | 338° |
| 2026-05-04 20:48 | 53.29005 | -1.81706 | 14603 ft | 338 kts | 338° |
| 2026-05-04 20:48 | 53.31178 | -1.83082 | 14253 ft | 334 kts | 337° |
| 2026-05-04 20:48 | 53.33362 | -1.84454 | 13855 ft | 335 kts | 338° |
| 2026-05-04 20:49 | 53.35503 | -1.85778 | 13379 ft | 332 kts | 338° |
| 2026-05-04 20:49 | 53.37567 | -1.87060 | 12908 ft | 329 kts | 338° |
| 2026-05-04 20:49 | 53.39694 | -1.88419 | 12460 ft | 324 kts | 337° |
| 2026-05-04 20:49 | 53.41755 | -1.89718 | 11849 ft | 308 kts | 338° |
| 2026-05-04 20:50 | 53.43720 | -1.90943 | 11246 ft | 295 kts | 338° |
| 2026-05-04 20:50 | 53.45611 | -1.92153 | 10635 ft | 287 kts | 337° |
| 2026-05-04 20:50 | 53.47459 | -1.93324 | 10064 ft | 283 kts | 338° |
| 2026-05-04 20:50 | 53.49320 | -1.94247 | 9425 ft | 282 kts | 353° |
| 2026-05-04 20:51 | 53.51217 | -1.93676 | 8815 ft | 285 kts | 25° |
| 2026-05-04 20:51 | 53.52792 | -1.91831 | 8233 ft | 284 kts | 39° |
| 2026-05-04 20:51 | 53.54207 | -1.89632 | 7642 ft | 288 kts | 43° |
| 2026-05-04 20:51 | 53.55652 | -1.87258 | 7059 ft | 292 kts | 44° |
| 2026-05-04 20:52 | 53.57086 | -1.84821 | 6471 ft | 294 kts | 45° |
| 2026-05-04 20:52 | 53.58500 | -1.82376 | 5865 ft | 285 kts | 45° |
| 2026-05-04 20:52 | 53.59395 | -1.80811 | 5452 ft | 275 kts | 45° |
| 2026-05-04 20:52 | 53.60690 | -1.78524 | 4840 ft | 265 kts | 45° |
| 2026-05-04 20:53 | 53.61941 | -1.76305 | 4325 ft | 258 kts | 45° |
| 2026-05-04 20:53 | 53.63156 | -1.74106 | 3986 ft | 262 kts | 50° |
| 2026-05-04 20:53 | 53.64019 | -1.71413 | 3654 ft | 261 kts | 65° |
| 2026-05-04 20:53 | 53.64857 | -1.68713 | 3340 ft | 260 kts | 57° |
| 2026-05-04 20:54 | 53.65495 | -1.66975 | 3175 ft | 257 kts | 57° |
| 2026-05-04 20:54 | 53.66405 | -1.64501 | 3056 ft | 253 kts | 57° |
| 2026-05-04 20:54 | 53.67316 | -1.62014 | 3025 ft | 244 kts | 57° |
| 2026-05-04 20:54 | 53.68169 | -1.59684 | 3002 ft | 231 kts | 57° |
| 2026-05-04 20:55 | 53.68993 | -1.57429 | 2986 ft | 220 kts | 57° |
| 2026-05-04 20:55 | 53.69776 | -1.55280 | 2979 ft | 211 kts | 57° |
| 2026-05-04 20:55 | 53.70476 | -1.53343 | 3005 ft | 197 kts | 57° |
| 2026-05-04 20:55 | 53.71636 | -1.51201 | 3069 ft | 186 kts | 38° |
| 2026-05-04 20:56 | 53.72316 | -1.50258 | 3042 ft | 189 kts | 37° |
| 2026-05-04 20:56 | 53.73415 | -1.49055 | 2854 ft | 188 kts | 16° |
| 2026-05-04 20:56 | 53.74662 | -1.48485 | 2671 ft | 189 kts | 13° |
| 2026-05-04 20:56 | 53.75941 | -1.48330 | 2444 ft | 185 kts | 340° |
| 2026-05-04 20:57 | 53.76905 | -1.49556 | 2343 ft | 170 kts | 311° |
| 2026-05-04 20:57 | 53.77703 | -1.51020 | 2317 ft | 169 kts | 311° |
| 2026-05-04 20:57 | 53.78494 | -1.52504 | 2301 ft | 170 kts | 310° |
| 2026-05-04 20:57 | 53.79276 | -1.53987 | 2295 ft | 169 kts | 310° |
| 2026-05-04 20:58 | 53.80055 | -1.55465 | 2298 ft | 165 kts | 310° |
| 2026-05-04 20:58 | 53.80778 | -1.56823 | 2164 ft | 146 kts | 313° |
| 2026-05-04 20:58 | 53.81409 | -1.58002 | 1950 ft | 128 kts | 313° |
| 2026-05-04 20:58 | 53.82013 | -1.59005 | 1775 ft | 118 kts | 315° |
| 2026-05-04 20:59 | 53.82603 | -1.59941 | 1614 ft | 115 kts | 317° |
| 2026-05-04 20:59 | 53.83192 | -1.60842 | 1476 ft | 115 kts | 317° |
| 2026-05-04 20:59 | 53.83791 | -1.61755 | 1357 ft | 117 kts | 315° |
| 2026-05-04 20:59 | 53.84399 | -1.62677 | 1181 ft | 122 kts | 316° |
| 2026-05-04 21:00 | 53.85031 | -1.63635 | 987 ft | 122 kts | 315° |
| 2026-05-04 21:00 | 53.85651 | -1.64607 | 819 ft | 117 kts | 315° |
| 2026-05-04 21:00 | 53.86226 | -1.65495 | 697 ft | 108 kts | 314° |
| 2026-05-04 21:00 | 53.86734 | -1.66269 | 669 ft | 90 kts | 316° |
| 2026-05-04 21:01 | 53.87071 | -1.66802 | 679 ft | 35 kts | 317° |
| 2026-05-04 21:01 | 53.87154 | -1.66931 | 683 ft | 10 kts | 317° |
| 2026-05-04 21:01 | 53.87195 | -1.66986 | 685 ft | 7 kts | 335° |
| 2026-05-04 21:01 | 53.87253 | -1.66999 | 686 ft | 11 kts | 1° |
| 2026-05-04 21:02 | 53.87343 | -1.66996 | 689 ft | 14 kts | 0° |
| 2026-05-04 21:02 | 53.87397 | -1.67081 | 691 ft | 10 kts | 262° |
| 2026-05-04 21:02 | 53.87345 | -1.67159 | 684 ft | 11 kts | 188° |
| 2026-05-04 21:02 | 53.87271 | -1.67096 | 682 ft | 14 kts | 138° |
| 2026-05-04 21:03 | 53.87199 | -1.66987 | 687 ft | 14 kts | 138° |
| 2026-05-04 21:03 | 53.87112 | -1.66858 | 679 ft | 19 kts | 138° |
| 2026-05-04 21:03 | 53.87015 | -1.66710 | 676 ft | 19 kts | 137° |
| 2026-05-04 21:03 | 53.86966 | -1.66583 | 672 ft | 11 kts | 82° |
| 2026-05-04 21:04 | 53.86995 | -1.66484 | 672 ft | 8 kts | 77° |
| 2026-05-04 21:04 | 53.86979 | -1.66387 | 670 ft | 10 kts | 120° |
| 2026-05-04 21:04 | 53.86937 | -1.66274 | 666 ft | 14 kts | 131° |
| 2026-05-04 21:04 | 53.86871 | -1.66171 | 666 ft | 10 kts | 138° |
| 2026-05-04 21:05 | 53.86825 | -1.66101 | 666 ft | 8 kts | 135° |
| 2026-05-04 21:05 | 53.86821 | -1.66036 | 666 ft | 5 kts | 45° |
| 2026-05-04 21:05 | 53.86847 | -1.66030 | 665 ft | 3 kts | 1° |
| 2026-05-04 21:05 | 53.86865 | -1.66029 | 665 ft | 1 kts | 2° |
| 2026-05-04 21:06 | 53.86870 | -1.66029 | 665 ft | 0 kts | 2° |